sensor_id;sensor_type;location;lat;lon;timestamp;P1;durP1;ratioP1;P2;durP2;ratioP2
70832;SDS011;71099;59.528;17.886;2024-03-29T00:01:55;29.70;;;17.25;;
70832;SDS011;71099;59.528;17.886;2024-03-29T00:04:20;32.63;;;17.92;;
70832;SDS011;71099;59.528;17.886;2024-03-29T00:06:46;35.15;;;18.20;;
70832;SDS011;71099;59.528;17.886;2024-03-29T00:09:11;27.63;;;16.90;;
70832;SDS011;71099;59.528;17.886;2024-03-29T00:11:36;34.10;;;18.33;;
70832;SDS011;71099;59.528;17.886;2024-03-29T00:14:02;33.40;;;18.95;;
70832;SDS011;71099;59.528;17.886;2024-03-29T00:16:27;33.92;;;18.85;;
70832;SDS011;71099;59.528;17.886;2024-03-29T00:18:53;30.63;;;17.85;;
70832;SDS011;71099;59.528;17.886;2024-03-29T00:21:18;31.42;;;19.25;;
70832;SDS011;71099;59.528;17.886;2024-03-29T00:23:44;35.65;;;18.83;;
70832;SDS011;71099;59.528;17.886;2024-03-29T00:26:10;34.58;;;20.23;;
70832;SDS011;71099;59.528;17.886;2024-03-29T00:28:36;35.00;;;18.70;;
70832;SDS011;71099;59.528;17.886;2024-03-29T00:31:02;41.83;;;20.83;;
70832;SDS011;71099;59.528;17.886;2024-03-29T00:33:27;47.35;;;19.98;;
70832;SDS011;71099;59.528;17.886;2024-03-29T00:35:53;33.35;;;20.17;;
70832;SDS011;71099;59.528;17.886;2024-03-29T00:38:18;40.05;;;20.83;;
70832;SDS011;71099;59.528;17.886;2024-03-29T00:40:43;40.70;;;19.77;;
70832;SDS011;71099;59.528;17.886;2024-03-29T00:43:09;41.92;;;22.83;;
70832;SDS011;71099;59.528;17.886;2024-03-29T00:45:35;43.10;;;21.02;;
70832;SDS011;71099;59.528;17.886;2024-03-29T00:48:02;50.00;;;22.80;;
70832;SDS011;71099;59.528;17.886;2024-03-29T00:50:28;36.28;;;20.45;;
70832;SDS011;71099;59.528;17.886;2024-03-29T00:52:53;39.42;;;20.10;;
70832;SDS011;71099;59.528;17.886;2024-03-29T00:55:19;34.33;;;20.45;;
70832;SDS011;71099;59.528;17.886;2024-03-29T00:57:45;35.88;;;20.50;;
70832;SDS011;71099;59.528;17.886;2024-03-29T01:00:10;34.35;;;19.10;;
70832;SDS011;71099;59.528;17.886;2024-03-29T01:02:36;56.95;;;22.02;;
70832;SDS011;71099;59.528;17.886;2024-03-29T01:05:01;40.35;;;20.55;;
70832;SDS011;71099;59.528;17.886;2024-03-29T01:07:28;43.92;;;22.70;;
70832;SDS011;71099;59.528;17.886;2024-03-29T01:09:53;47.83;;;22.95;;
70832;SDS011;71099;59.528;17.886;2024-03-29T01:12:18;43.80;;;21.95;;
70832;SDS011;71099;59.528;17.886;2024-03-29T01:14:44;52.30;;;22.50;;
70832;SDS011;71099;59.528;17.886;2024-03-29T01:17:10;44.20;;;23.10;;
70832;SDS011;71099;59.528;17.886;2024-03-29T01:19:36;50.92;;;23.52;;
70832;SDS011;71099;59.528;17.886;2024-03-29T01:22:01;46.78;;;25.10;;
70832;SDS011;71099;59.528;17.886;2024-03-29T01:24:27;45.28;;;21.77;;
70832;SDS011;71099;59.528;17.886;2024-03-29T01:26:52;69.95;;;23.95;;
70832;SDS011;71099;59.528;17.886;2024-03-29T01:29:18;49.30;;;21.55;;
70832;SDS011;71099;59.528;17.886;2024-03-29T01:31:44;46.60;;;22.60;;
70832;SDS011;71099;59.528;17.886;2024-03-29T01:34:09;56.25;;;22.27;;
70832;SDS011;71099;59.528;17.886;2024-03-29T01:36:35;43.83;;;24.20;;
70832;SDS011;71099;59.528;17.886;2024-03-29T01:39:00;49.97;;;21.75;;
70832;SDS011;71099;59.528;17.886;2024-03-29T01:41:25;53.42;;;23.10;;
70832;SDS011;71099;59.528;17.886;2024-03-29T01:43:52;38.55;;;21.55;;
70832;SDS011;71099;59.528;17.886;2024-03-29T01:46:19;52.08;;;24.02;;
70832;SDS011;71099;59.528;17.886;2024-03-29T01:48:46;42.42;;;21.58;;
70832;SDS011;71099;59.528;17.886;2024-03-29T01:51:13;43.22;;;22.60;;
70832;SDS011;71099;59.528;17.886;2024-03-29T01:53:39;43.83;;;20.17;;
70832;SDS011;71099;59.528;17.886;2024-03-29T01:56:05;42.97;;;21.98;;
70832;SDS011;71099;59.528;17.886;2024-03-29T01:58:31;40.15;;;22.23;;
70832;SDS011;71099;59.528;17.886;2024-03-29T02:00:58;35.60;;;19.05;;
70832;SDS011;71099;59.528;17.886;2024-03-29T02:03:25;48.38;;;22.30;;
70832;SDS011;71099;59.528;17.886;2024-03-29T02:05:51;44.58;;;21.15;;
70832;SDS011;71099;59.528;17.886;2024-03-29T02:08:17;40.05;;;23.08;;
70832;SDS011;71099;59.528;17.886;2024-03-29T02:10:43;36.72;;;20.15;;
70832;SDS011;71099;59.528;17.886;2024-03-29T02:13:10;40.67;;;22.10;;
70832;SDS011;71099;59.528;17.886;2024-03-29T02:15:36;37.78;;;20.40;;
70832;SDS011;71099;59.528;17.886;2024-03-29T02:18:01;38.42;;;21.05;;
70832;SDS011;71099;59.528;17.886;2024-03-29T02:20:27;37.38;;;21.67;;
70832;SDS011;71099;59.528;17.886;2024-03-29T02:22:54;47.03;;;21.67;;
70832;SDS011;71099;59.528;17.886;2024-03-29T02:25:23;44.30;;;23.63;;
70832;SDS011;71099;59.528;17.886;2024-03-29T02:27:49;39.78;;;21.70;;
70832;SDS011;71099;59.528;17.886;2024-03-29T02:30:16;37.78;;;21.38;;
70832;SDS011;71099;59.528;17.886;2024-03-29T02:32:42;39.72;;;21.95;;
70832;SDS011;71099;59.528;17.886;2024-03-29T02:35:08;44.53;;;23.02;;
70832;SDS011;71099;59.528;17.886;2024-03-29T02:37:36;41.33;;;20.90;;
70832;SDS011;71099;59.528;17.886;2024-03-29T02:40:03;33.17;;;19.63;;
70832;SDS011;71099;59.528;17.886;2024-03-29T02:42:30;37.78;;;21.88;;
70832;SDS011;71099;59.528;17.886;2024-03-29T02:44:55;34.05;;;22.02;;
70832;SDS011;71099;59.528;17.886;2024-03-29T02:47:21;32.58;;;18.50;;
70832;SDS011;71099;59.528;17.886;2024-03-29T02:49:47;31.30;;;19.33;;
70832;SDS011;71099;59.528;17.886;2024-03-29T02:52:15;32.20;;;18.88;;
70832;SDS011;71099;59.528;17.886;2024-03-29T02:54:41;31.23;;;20.13;;
70832;SDS011;71099;59.528;17.886;2024-03-29T02:57:06;36.58;;;18.58;;
70832;SDS011;71099;59.528;17.886;2024-03-29T02:59:32;40.72;;;21.80;;
70832;SDS011;71099;59.528;17.886;2024-03-29T03:01:57;30.92;;;19.23;;
70832;SDS011;71099;59.528;17.886;2024-03-29T03:04:23;36.92;;;19.17;;
70832;SDS011;71099;59.528;17.886;2024-03-29T03:06:48;35.85;;;19.30;;
70832;SDS011;71099;59.528;17.886;2024-03-29T03:09:13;29.30;;;17.38;;
70832;SDS011;71099;59.528;17.886;2024-03-29T03:11:57;33.15;;;19.55;;
70832;SDS011;71099;59.528;17.886;2024-03-29T03:14:24;35.60;;;19.02;;
70832;SDS011;71099;59.528;17.886;2024-03-29T03:16:49;34.70;;;21.33;;
70832;SDS011;71099;59.528;17.886;2024-03-29T03:19:15;31.42;;;18.98;;
70832;SDS011;71099;59.528;17.886;2024-03-29T03:21:40;29.23;;;18.35;;
70832;SDS011;71099;59.528;17.886;2024-03-29T03:24:05;26.60;;;17.45;;
70832;SDS011;71099;59.528;17.886;2024-03-29T03:26:31;29.20;;;15.48;;
70832;SDS011;71099;59.528;17.886;2024-03-29T03:28:56;24.65;;;14.77;;
70832;SDS011;71099;59.528;17.886;2024-03-29T03:31:22;22.23;;;12.95;;
70832;SDS011;71099;59.528;17.886;2024-03-29T03:33:47;24.73;;;13.90;;
70832;SDS011;71099;59.528;17.886;2024-03-29T03:36:13;22.85;;;11.80;;
70832;SDS011;71099;59.528;17.886;2024-03-29T03:38:38;20.60;;;11.45;;
70832;SDS011;71099;59.528;17.886;2024-03-29T03:41:04;16.92;;;9.93;;
70832;SDS011;71099;59.528;17.886;2024-03-29T03:43:30;18.67;;;11.52;;
70832;SDS011;71099;59.528;17.886;2024-03-29T03:46:00;21.08;;;10.93;;
70832;SDS011;71099;59.528;17.886;2024-03-29T03:48:26;18.90;;;9.63;;
70832;SDS011;71099;59.528;17.886;2024-03-29T03:50:53;17.27;;;10.27;;
70832;SDS011;71099;59.528;17.886;2024-03-29T03:53:19;18.55;;;9.98;;
70832;SDS011;71099;59.528;17.886;2024-03-29T03:55:45;19.25;;;9.80;;
70832;SDS011;71099;59.528;17.886;2024-03-29T03:58:10;16.60;;;9.93;;
70832;SDS011;71099;59.528;17.886;2024-03-29T04:00:35;16.33;;;9.27;;
70832;SDS011;71099;59.528;17.886;2024-03-29T04:03:01;17.38;;;9.98;;
70832;SDS011;71099;59.528;17.886;2024-03-29T04:05:28;19.13;;;10.18;;
70832;SDS011;71099;59.528;17.886;2024-03-29T04:07:56;18.55;;;10.07;;
70832;SDS011;71099;59.528;17.886;2024-03-29T04:10:22;20.13;;;11.48;;
70832;SDS011;71099;59.528;17.886;2024-03-29T04:12:47;19.98;;;10.95;;
70832;SDS011;71099;59.528;17.886;2024-03-29T04:15:13;21.02;;;13.02;;
70832;SDS011;71099;59.528;17.886;2024-03-29T04:17:38;26.08;;;12.27;;
70832;SDS011;71099;59.528;17.886;2024-03-29T04:20:03;25.15;;;14.52;;
70832;SDS011;71099;59.528;17.886;2024-03-29T04:22:30;30.15;;;15.23;;
70832;SDS011;71099;59.528;17.886;2024-03-29T04:24:55;35.63;;;16.13;;
70832;SDS011;71099;59.528;17.886;2024-03-29T04:27:21;31.75;;;15.85;;
70832;SDS011;71099;59.528;17.886;2024-03-29T04:29:47;41.70;;;18.58;;
70832;SDS011;71099;59.528;17.886;2024-03-29T04:32:16;37.17;;;18.80;;
70832;SDS011;71099;59.528;17.886;2024-03-29T04:34:41;39.08;;;17.38;;
70832;SDS011;71099;59.528;17.886;2024-03-29T04:37:07;35.97;;;17.67;;
70832;SDS011;71099;59.528;17.886;2024-03-29T04:39:32;35.90;;;17.33;;
70832;SDS011;71099;59.528;17.886;2024-03-29T04:41:58;41.30;;;18.73;;
70832;SDS011;71099;59.528;17.886;2024-03-29T04:44:27;39.63;;;20.02;;
70832;SDS011;71099;59.528;17.886;2024-03-29T04:46:53;42.63;;;19.15;;
70832;SDS011;71099;59.528;17.886;2024-03-29T04:49:18;38.88;;;19.48;;
70832;SDS011;71099;59.528;17.886;2024-03-29T04:51:55;45.92;;;21.38;;
70832;SDS011;71099;59.528;17.886;2024-03-29T04:54:21;46.97;;;20.33;;
70832;SDS011;71099;59.528;17.886;2024-03-29T04:56:48;44.70;;;20.60;;
70832;SDS011;71099;59.528;17.886;2024-03-29T04:59:14;37.80;;;18.75;;
70832;SDS011;71099;59.528;17.886;2024-03-29T05:01:42;41.63;;;21.35;;
70832;SDS011;71099;59.528;17.886;2024-03-29T05:04:09;38.28;;;20.60;;
70832;SDS011;71099;59.528;17.886;2024-03-29T05:06:35;38.75;;;18.95;;
70832;SDS011;71099;59.528;17.886;2024-03-29T05:09:00;46.42;;;22.70;;
70832;SDS011;71099;59.528;17.886;2024-03-29T05:11:25;41.33;;;21.42;;
70832;SDS011;71099;59.528;17.886;2024-03-29T05:13:51;47.35;;;24.40;;
70832;SDS011;71099;59.528;17.886;2024-03-29T05:16:16;40.58;;;20.52;;
70832;SDS011;71099;59.528;17.886;2024-03-29T05:18:41;36.35;;;19.58;;
70832;SDS011;71099;59.528;17.886;2024-03-29T05:21:07;43.35;;;21.52;;
70832;SDS011;71099;59.528;17.886;2024-03-29T05:23:34;37.88;;;20.48;;
70832;SDS011;71099;59.528;17.886;2024-03-29T05:25:59;39.45;;;19.77;;
70832;SDS011;71099;59.528;17.886;2024-03-29T05:28:25;41.83;;;20.27;;
70832;SDS011;71099;59.528;17.886;2024-03-29T05:30:51;46.63;;;22.48;;
70832;SDS011;71099;59.528;17.886;2024-03-29T05:33:16;45.58;;;21.08;;
70832;SDS011;71099;59.528;17.886;2024-03-29T05:35:42;43.45;;;20.27;;
70832;SDS011;71099;59.528;17.886;2024-03-29T05:38:07;41.97;;;21.35;;
70832;SDS011;71099;59.528;17.886;2024-03-29T05:40:33;43.30;;;20.75;;
70832;SDS011;71099;59.528;17.886;2024-03-29T05:42:58;41.53;;;20.60;;
70832;SDS011;71099;59.528;17.886;2024-03-29T05:45:30;47.08;;;21.80;;
70832;SDS011;71099;59.528;17.886;2024-03-29T05:47:57;43.05;;;22.92;;
70832;SDS011;71099;59.528;17.886;2024-03-29T05:50:23;42.08;;;20.35;;
70832;SDS011;71099;59.528;17.886;2024-03-29T05:52:50;43.10;;;21.52;;
70832;SDS011;71099;59.528;17.886;2024-03-29T05:55:17;42.90;;;21.35;;
70832;SDS011;71099;59.528;17.886;2024-03-29T05:57:43;39.45;;;20.73;;
70832;SDS011;71099;59.528;17.886;2024-03-29T06:00:10;38.92;;;20.58;;
70832;SDS011;71099;59.528;17.886;2024-03-29T06:02:37;37.53;;;18.88;;
70832;SDS011;71099;59.528;17.886;2024-03-29T06:05:03;40.45;;;22.58;;
70832;SDS011;71099;59.528;17.886;2024-03-29T06:07:30;41.63;;;20.67;;
70832;SDS011;71099;59.528;17.886;2024-03-29T06:09:58;36.15;;;19.42;;
70832;SDS011;71099;59.528;17.886;2024-03-29T06:12:24;37.63;;;19.85;;
70832;SDS011;71099;59.528;17.886;2024-03-29T06:14:49;37.95;;;19.65;;
70832;SDS011;71099;59.528;17.886;2024-03-29T06:17:33;37.55;;;19.20;;
70832;SDS011;71099;59.528;17.886;2024-03-29T06:20:00;33.03;;;19.70;;
70832;SDS011;71099;59.528;17.886;2024-03-29T06:22:28;42.60;;;20.23;;
70832;SDS011;71099;59.528;17.886;2024-03-29T06:24:55;36.67;;;19.08;;
70832;SDS011;71099;59.528;17.886;2024-03-29T06:27:24;35.65;;;19.20;;
70832;SDS011;71099;59.528;17.886;2024-03-29T06:29:50;35.63;;;18.23;;
70832;SDS011;71099;59.528;17.886;2024-03-29T06:32:19;29.95;;;17.20;;
70832;SDS011;71099;59.528;17.886;2024-03-29T06:34:44;34.88;;;18.75;;
70832;SDS011;71099;59.528;17.886;2024-03-29T06:37:10;34.60;;;18.77;;
70832;SDS011;71099;59.528;17.886;2024-03-29T06:39:36;35.60;;;20.17;;
70832;SDS011;71099;59.528;17.886;2024-03-29T06:42:02;36.42;;;18.92;;
70832;SDS011;71099;59.528;17.886;2024-03-29T06:44:28;36.67;;;19.90;;
70832;SDS011;71099;59.528;17.886;2024-03-29T06:46:54;45.70;;;20.08;;
70832;SDS011;71099;59.528;17.886;2024-03-29T06:49:19;35.53;;;18.85;;
70832;SDS011;71099;59.528;17.886;2024-03-29T06:51:45;30.98;;;18.67;;
70832;SDS011;71099;59.528;17.886;2024-03-29T06:54:10;33.45;;;19.73;;
70832;SDS011;71099;59.528;17.886;2024-03-29T06:56:35;33.38;;;17.90;;
70832;SDS011;71099;59.528;17.886;2024-03-29T06:59:01;32.35;;;18.92;;
70832;SDS011;71099;59.528;17.886;2024-03-29T07:01:29;36.55;;;18.83;;
70832;SDS011;71099;59.528;17.886;2024-03-29T07:03:55;40.10;;;18.63;;
70832;SDS011;71099;59.528;17.886;2024-03-29T07:06:21;35.85;;;19.60;;
70832;SDS011;71099;59.528;17.886;2024-03-29T07:08:46;31.75;;;19.42;;
70832;SDS011;71099;59.528;17.886;2024-03-29T07:11:12;30.40;;;17.00;;
70832;SDS011;71099;59.528;17.886;2024-03-29T07:13:38;32.08;;;17.63;;
70832;SDS011;71099;59.528;17.886;2024-03-29T07:16:06;34.35;;;19.48;;
70832;SDS011;71099;59.528;17.886;2024-03-29T07:18:37;36.15;;;17.80;;
70832;SDS011;71099;59.528;17.886;2024-03-29T07:21:03;31.75;;;18.30;;
70832;SDS011;71099;59.528;17.886;2024-03-29T07:23:29;32.95;;;17.95;;
70832;SDS011;71099;59.528;17.886;2024-03-29T07:26:01;34.72;;;16.83;;
70832;SDS011;71099;59.528;17.886;2024-03-29T07:28:28;30.90;;;17.67;;
70832;SDS011;71099;59.528;17.886;2024-03-29T07:30:57;31.95;;;18.10;;
70832;SDS011;71099;59.528;17.886;2024-03-29T07:33:31;28.60;;;15.75;;
70832;SDS011;71099;59.528;17.886;2024-03-29T07:35:57;26.85;;;15.57;;
70832;SDS011;71099;59.528;17.886;2024-03-29T07:38:22;30.75;;;15.23;;
70832;SDS011;71099;59.528;17.886;2024-03-29T07:40:48;25.55;;;15.07;;
70832;SDS011;71099;59.528;17.886;2024-03-29T07:43:14;21.50;;;14.48;;
70832;SDS011;71099;59.528;17.886;2024-03-29T07:45:43;24.10;;;14.65;;
70832;SDS011;71099;59.528;17.886;2024-03-29T07:48:13;28.80;;;14.13;;
70832;SDS011;71099;59.528;17.886;2024-03-29T07:50:44;24.15;;;14.25;;
70832;SDS011;71099;59.528;17.886;2024-03-29T07:53:10;20.65;;;14.20;;
70832;SDS011;71099;59.528;17.886;2024-03-29T07:55:39;24.00;;;13.20;;
70832;SDS011;71099;59.528;17.886;2024-03-29T07:58:09;19.90;;;12.98;;
70832;SDS011;71099;59.528;17.886;2024-03-29T08:00:38;21.75;;;12.25;;
70832;SDS011;71099;59.528;17.886;2024-03-29T08:03:05;23.23;;;13.55;;
70832;SDS011;71099;59.528;17.886;2024-03-29T08:05:31;21.23;;;13.00;;
70832;SDS011;71099;59.528;17.886;2024-03-29T08:07:56;15.88;;;11.50;;
70832;SDS011;71099;59.528;17.886;2024-03-29T08:10:22;22.05;;;11.57;;
70832;SDS011;71099;59.528;17.886;2024-03-29T08:12:47;18.05;;;11.85;;
70832;SDS011;71099;59.528;17.886;2024-03-29T08:15:13;16.60;;;12.00;;
70832;SDS011;71099;59.528;17.886;2024-03-29T08:17:39;20.65;;;11.93;;
70832;SDS011;71099;59.528;17.886;2024-03-29T08:20:04;15.90;;;10.80;;
70832;SDS011;71099;59.528;17.886;2024-03-29T08:22:30;19.88;;;11.57;;
70832;SDS011;71099;59.528;17.886;2024-03-29T08:24:58;18.50;;;10.18;;
70832;SDS011;71099;59.528;17.886;2024-03-29T08:27:25;15.38;;;10.82;;
70832;SDS011;71099;59.528;17.886;2024-03-29T08:29:51;16.30;;;10.82;;
70832;SDS011;71099;59.528;17.886;2024-03-29T08:32:17;17.40;;;9.63;;
70832;SDS011;71099;59.528;17.886;2024-03-29T08:34:42;19.45;;;9.98;;
70832;SDS011;71099;59.528;17.886;2024-03-29T08:37:07;17.60;;;10.68;;
70832;SDS011;71099;59.528;17.886;2024-03-29T08:39:33;19.70;;;9.65;;
70832;SDS011;71099;59.528;17.886;2024-03-29T08:41:59;14.90;;;9.23;;
70832;SDS011;71099;59.528;17.886;2024-03-29T08:44:30;13.32;;;8.65;;
70832;SDS011;71099;59.528;17.886;2024-03-29T08:46:58;16.30;;;9.13;;
70832;SDS011;71099;59.528;17.886;2024-03-29T08:49:26;15.27;;;8.85;;
70832;SDS011;71099;59.528;17.886;2024-03-29T08:51:52;15.45;;;9.52;;
70832;SDS011;71099;59.528;17.886;2024-03-29T08:54:18;17.73;;;9.80;;
70832;SDS011;71099;59.528;17.886;2024-03-29T08:56:43;13.27;;;8.80;;
70832;SDS011;71099;59.528;17.886;2024-03-29T08:59:12;13.25;;;7.97;;
70832;SDS011;71099;59.528;17.886;2024-03-29T09:01:41;16.80;;;8.35;;
70832;SDS011;71099;59.528;17.886;2024-03-29T09:04:07;14.93;;;7.93;;
70832;SDS011;71099;59.528;17.886;2024-03-29T09:06:36;11.63;;;7.35;;
70832;SDS011;71099;59.528;17.886;2024-03-29T09:09:05;15.15;;;8.90;;
70832;SDS011;71099;59.528;17.886;2024-03-29T09:11:31;12.98;;;7.97;;
70832;SDS011;71099;59.528;17.886;2024-03-29T09:13:57;11.55;;;7.72;;
70832;SDS011;71099;59.528;17.886;2024-03-29T09:16:24;15.68;;;8.82;;
70832;SDS011;71099;59.528;17.886;2024-03-29T09:18:50;11.40;;;6.50;;
70832;SDS011;71099;59.528;17.886;2024-03-29T09:21:16;12.75;;;7.47;;
70832;SDS011;71099;59.528;17.886;2024-03-29T09:23:42;12.70;;;6.47;;
70832;SDS011;71099;59.528;17.886;2024-03-29T09:26:07;11.02;;;6.45;;
70832;SDS011;71099;59.528;17.886;2024-03-29T09:28:33;12.25;;;6.15;;
70832;SDS011;71099;59.528;17.886;2024-03-29T09:31:03;11.38;;;6.55;;
70832;SDS011;71099;59.528;17.886;2024-03-29T09:33:29;13.93;;;7.40;;
70832;SDS011;71099;59.528;17.886;2024-03-29T09:35:55;11.13;;;6.78;;
70832;SDS011;71099;59.528;17.886;2024-03-29T09:38:20;9.68;;;6.32;;
70832;SDS011;71099;59.528;17.886;2024-03-29T09:40:46;12.38;;;6.93;;
70832;SDS011;71099;59.528;17.886;2024-03-29T09:43:17;17.77;;;6.25;;
70832;SDS011;71099;59.528;17.886;2024-03-29T09:45:43;13.30;;;6.95;;
70832;SDS011;71099;59.528;17.886;2024-03-29T09:48:09;10.13;;;5.93;;
70832;SDS011;71099;59.528;17.886;2024-03-29T09:50:35;11.77;;;6.10;;
70832;SDS011;71099;59.528;17.886;2024-03-29T09:53:01;7.82;;;5.20;;
70832;SDS011;71099;59.528;17.886;2024-03-29T09:55:29;9.30;;;5.20;;
70832;SDS011;71099;59.528;17.886;2024-03-29T09:57:55;9.52;;;5.25;;
70832;SDS011;71099;59.528;17.886;2024-03-29T10:00:22;12.75;;;5.20;;
70832;SDS011;71099;59.528;17.886;2024-03-29T10:02:48;7.47;;;5.05;;
70832;SDS011;71099;59.528;17.886;2024-03-29T10:05:15;12.88;;;6.88;;
70832;SDS011;71099;59.528;17.886;2024-03-29T10:07:40;9.77;;;5.30;;
70832;SDS011;71099;59.528;17.886;2024-03-29T10:10:09;7.03;;;4.85;;
70832;SDS011;71099;59.528;17.886;2024-03-29T10:12:36;8.43;;;5.18;;
70832;SDS011;71099;59.528;17.886;2024-03-29T10:15:03;7.90;;;4.72;;
70832;SDS011;71099;59.528;17.886;2024-03-29T10:17:46;13.15;;;5.30;;
70832;SDS011;71099;59.528;17.886;2024-03-29T10:20:18;10.48;;;6.05;;
70832;SDS011;71099;59.528;17.886;2024-03-29T10:22:45;8.68;;;4.90;;
70832;SDS011;71099;59.528;17.886;2024-03-29T10:25:14;8.13;;;5.18;;
70832;SDS011;71099;59.528;17.886;2024-03-29T10:27:40;7.22;;;5.40;;
70832;SDS011;71099;59.528;17.886;2024-03-29T10:30:09;11.88;;;5.38;;
70832;SDS011;71099;59.528;17.886;2024-03-29T10:32:38;9.80;;;5.93;;
70832;SDS011;71099;59.528;17.886;2024-03-29T10:35:07;9.60;;;5.55;;
70832;SDS011;71099;59.528;17.886;2024-03-29T10:37:34;12.02;;;6.07;;
70832;SDS011;71099;59.528;17.886;2024-03-29T10:40:07;10.00;;;6.10;;
70832;SDS011;71099;59.528;17.886;2024-03-29T10:42:34;9.40;;;5.57;;
70832;SDS011;71099;59.528;17.886;2024-03-29T10:45:02;8.45;;;5.15;;
70832;SDS011;71099;59.528;17.886;2024-03-29T10:47:30;8.27;;;5.30;;
70832;SDS011;71099;59.528;17.886;2024-03-29T10:49:58;8.65;;;6.10;;
70832;SDS011;71099;59.528;17.886;2024-03-29T10:52:26;9.90;;;6.28;;
70832;SDS011;71099;59.528;17.886;2024-03-29T10:54:52;7.45;;;5.18;;
70832;SDS011;71099;59.528;17.886;2024-03-29T10:57:23;12.60;;;6.88;;
70832;SDS011;71099;59.528;17.886;2024-03-29T11:02:42;10.40;;;6.13;;
70832;SDS011;71099;59.528;17.886;2024-03-29T11:05:16;10.10;;;5.75;;
70832;SDS011;71099;59.528;17.886;2024-03-29T11:07:42;13.00;;;6.18;;
70832;SDS011;71099;59.528;17.886;2024-03-29T11:10:14;10.68;;;6.60;;
70832;SDS011;71099;59.528;17.886;2024-03-29T11:12:47;9.05;;;5.85;;
70832;SDS011;71099;59.528;17.886;2024-03-29T11:15:22;10.40;;;6.20;;
70832;SDS011;71099;59.528;17.886;2024-03-29T11:17:55;11.32;;;6.10;;
70832;SDS011;71099;59.528;17.886;2024-03-29T11:20:22;9.10;;;6.13;;
70832;SDS011;71099;59.528;17.886;2024-03-29T11:23:06;8.52;;;6.60;;
70832;SDS011;71099;59.528;17.886;2024-03-29T11:25:44;10.65;;;6.50;;
70832;SDS011;71099;59.528;17.886;2024-03-29T11:30:56;9.88;;;5.90;;
70832;SDS011;71099;59.528;17.886;2024-03-29T11:35:58;15.90;;;6.65;;
70832;SDS011;71099;59.528;17.886;2024-03-29T11:38:31;9.30;;;6.65;;
70832;SDS011;71099;59.528;17.886;2024-03-29T11:41:20;8.10;;;5.38;;
70832;SDS011;71099;59.528;17.886;2024-03-29T11:43:48;8.88;;;5.93;;
70832;SDS011;71099;59.528;17.886;2024-03-29T11:46:15;8.45;;;5.47;;
70832;SDS011;71099;59.528;17.886;2024-03-29T11:48:42;8.32;;;5.57;;
70832;SDS011;71099;59.528;17.886;2024-03-29T11:51:10;7.70;;;5.28;;
70832;SDS011;71099;59.528;17.886;2024-03-29T11:53:39;6.90;;;4.18;;
70832;SDS011;71099;59.528;17.886;2024-03-29T11:56:05;10.40;;;5.38;;
70832;SDS011;71099;59.528;17.886;2024-03-29T11:58:32;9.80;;;4.63;;
70832;SDS011;71099;59.528;17.886;2024-03-29T12:00:59;7.60;;;4.95;;
70832;SDS011;71099;59.528;17.886;2024-03-29T12:03:26;11.30;;;4.82;;
70832;SDS011;71099;59.528;17.886;2024-03-29T12:05:53;6.30;;;3.92;;
70832;SDS011;71099;59.528;17.886;2024-03-29T12:08:23;7.75;;;4.20;;
70832;SDS011;71099;59.528;17.886;2024-03-29T12:10:52;6.15;;;3.80;;
70832;SDS011;71099;59.528;17.886;2024-03-29T12:13:18;7.15;;;4.50;;
70832;SDS011;71099;59.528;17.886;2024-03-29T12:15:43;7.10;;;3.53;;
70832;SDS011;71099;59.528;17.886;2024-03-29T12:18:09;6.63;;;4.25;;
70832;SDS011;71099;59.528;17.886;2024-03-29T12:20:41;4.78;;;3.22;;
70832;SDS011;71099;59.528;17.886;2024-03-29T12:23:11;4.70;;;3.20;;
70832;SDS011;71099;59.528;17.886;2024-03-29T12:25:38;5.22;;;2.80;;
70832;SDS011;71099;59.528;17.886;2024-03-29T12:28:04;7.18;;;2.67;;
70832;SDS011;71099;59.528;17.886;2024-03-29T12:30:30;3.25;;;1.98;;
70832;SDS011;71099;59.528;17.886;2024-03-29T12:33:14;2.85;;;2.30;;
70832;SDS011;71099;59.528;17.886;2024-03-29T12:35:42;4.43;;;2.15;;
70832;SDS011;71099;59.528;17.886;2024-03-29T12:38:13;2.05;;;1.83;;
70832;SDS011;71099;59.528;17.886;2024-03-29T12:40:40;3.95;;;1.95;;
70832;SDS011;71099;59.528;17.886;2024-03-29T12:43:08;2.00;;;1.80;;
70832;SDS011;71099;59.528;17.886;2024-03-29T12:45:35;2.50;;;1.58;;
70832;SDS011;71099;59.528;17.886;2024-03-29T12:48:01;4.05;;;1.75;;
70832;SDS011;71099;59.528;17.886;2024-03-29T12:50:31;2.13;;;1.42;;
70832;SDS011;71099;59.528;17.886;2024-03-29T12:52:58;5.15;;;1.60;;
70832;SDS011;71099;59.528;17.886;2024-03-29T12:55:24;3.63;;;1.10;;
70832;SDS011;71099;59.528;17.886;2024-03-29T12:57:55;2.92;;;1.50;;
70832;SDS011;71099;59.528;17.886;2024-03-29T13:00:21;3.13;;;1.25;;
70832;SDS011;71099;59.528;17.886;2024-03-29T13:02:47;4.60;;;1.27;;
70832;SDS011;71099;59.528;17.886;2024-03-29T13:05:13;2.85;;;1.60;;
70832;SDS011;71099;59.528;17.886;2024-03-29T13:07:38;1.88;;;1.40;;
70832;SDS011;71099;59.528;17.886;2024-03-29T13:10:04;3.13;;;1.20;;
70832;SDS011;71099;59.528;17.886;2024-03-29T13:12:43;2.22;;;1.63;;
70832;SDS011;71099;59.528;17.886;2024-03-29T13:15:24;1.92;;;1.10;;
70832;SDS011;71099;59.528;17.886;2024-03-29T13:17:55;3.90;;;1.38;;
70832;SDS011;71099;59.528;17.886;2024-03-29T13:20:21;1.15;;;1.08;;
70832;SDS011;71099;59.528;17.886;2024-03-29T13:22:48;6.28;;;1.20;;
70832;SDS011;71099;59.528;17.886;2024-03-29T13:25:21;2.78;;;1.15;;
70832;SDS011;71099;59.528;17.886;2024-03-29T13:27:48;4.47;;;1.17;;
70832;SDS011;71099;59.528;17.886;2024-03-29T13:30:18;2.85;;;1.13;;
70832;SDS011;71099;59.528;17.886;2024-03-29T13:32:45;2.63;;;1.17;;
70832;SDS011;71099;59.528;17.886;2024-03-29T13:35:10;4.90;;;0.95;;
70832;SDS011;71099;59.528;17.886;2024-03-29T13:37:37;3.67;;;1.20;;
70832;SDS011;71099;59.528;17.886;2024-03-29T13:40:04;4.22;;;1.50;;
70832;SDS011;71099;59.528;17.886;2024-03-29T13:42:34;1.95;;;1.13;;
70832;SDS011;71099;59.528;17.886;2024-03-29T13:45:03;8.15;;;1.48;;
70832;SDS011;71099;59.528;17.886;2024-03-29T13:47:29;4.57;;;1.30;;
70832;SDS011;71099;59.528;17.886;2024-03-29T13:49:54;2.80;;;1.08;;
70832;SDS011;71099;59.528;17.886;2024-03-29T13:52:21;2.33;;;0.95;;
70832;SDS011;71099;59.528;17.886;2024-03-29T13:54:47;2.30;;;1.00;;
70832;SDS011;71099;59.528;17.886;2024-03-29T13:57:13;3.88;;;1.05;;
70832;SDS011;71099;59.528;17.886;2024-03-29T13:59:39;1.80;;;1.20;;
70832;SDS011;71099;59.528;17.886;2024-03-29T14:02:07;3.30;;;0.80;;
70832;SDS011;71099;59.528;17.886;2024-03-29T14:04:42;4.32;;;1.10;;
70832;SDS011;71099;59.528;17.886;2024-03-29T14:07:08;3.05;;;0.98;;
70832;SDS011;71099;59.528;17.886;2024-03-29T14:09:38;5.57;;;1.30;;
70832;SDS011;71099;59.528;17.886;2024-03-29T14:12:05;2.88;;;1.00;;
70832;SDS011;71099;59.528;17.886;2024-03-29T14:14:31;2.70;;;1.08;;
70832;SDS011;71099;59.528;17.886;2024-03-29T14:16:56;5.18;;;1.60;;
70832;SDS011;71099;59.528;17.886;2024-03-29T14:19:22;4.05;;;1.42;;
70832;SDS011;71099;59.528;17.886;2024-03-29T14:21:49;3.30;;;1.38;;
70832;SDS011;71099;59.528;17.886;2024-03-29T14:24:14;7.50;;;1.70;;
70832;SDS011;71099;59.528;17.886;2024-03-29T14:26:40;4.72;;;1.52;;